Terminal Aerodrome Forecast
Issued by NWS Cleveland, OH

Home | Current Version | Previous Version | Text Only | Print | Product List | Glossary Off
Versions: 1 2 3 4 5 6 7 8 9 10 11 12 13 14 15

000
FTUS41 KCLE 191100 RRA
TAFMFD
TAF
KMFD 191141Z 1912/2012 27005KT 5SM BR OVC006
     FM191600 31005KT P6SM OVC012
     FM192200 VRB03KT P6SM OVC025=

USA.gov is the U.S. government's official web portal to all federal, state and local government web resources and services.